createdAt,value
2019-01-20T00:00:19.871Z,100347.27
2019-01-20T00:02:47.634Z,100348.25
2019-01-20T00:05:15.956Z,100346.78
2019-01-20T00:07:43.629Z,100345.39
2019-01-20T00:10:11.469Z,100345.00
2019-01-20T00:12:38.976Z,100342.54
2019-01-20T00:15:07.272Z,100343.22
2019-01-20T00:17:35.117Z,100340.02
2019-01-20T00:20:03.802Z,100336.91
2019-01-20T00:22:31.608Z,100342.97
2019-01-20T00:24:59.175Z,100339.04
2019-01-20T00:27:27.222Z,100342.37
2019-01-20T00:29:55.331Z,100342.19
2019-01-20T00:32:23.009Z,100344.79
2019-01-20T00:34:50.570Z,100339.47
2019-01-20T00:37:18.397Z,100337.90
2019-01-20T00:39:45.999Z,100339.81
2019-01-20T00:42:13.599Z,100340.51
2019-01-20T00:44:41.536Z,100344.20
2019-01-20T00:47:09.373Z,100346.61
2019-01-20T00:49:37.292Z,100347.22
2019-01-20T00:52:05.070Z,100340.91
2019-01-20T00:54:32.737Z,100336.81
2019-01-20T00:57:00.053Z,100336.65
2019-01-20T00:59:27.611Z,100333.19
2019-01-20T01:01:54.961Z,100334.03
2019-01-20T01:04:22.416Z,100336.06
2019-01-20T01:06:50.067Z,100339.86
2019-01-20T01:09:17.734Z,100338.31
2019-01-20T01:11:45.134Z,100338.23
2019-01-20T01:14:12.934Z,100330.34
2019-01-20T01:16:40.570Z,100339.16
2019-01-20T01:19:08.625Z,100342.43
2019-01-20T01:21:39.867Z,100347.55
2019-01-20T01:24:07.890Z,100341.17
2019-01-20T01:26:36.829Z,100343.41
2019-01-20T01:29:04.452Z,100345.86
2019-01-20T01:31:32.409Z,100350.86
2019-01-20T01:33:59.800Z,100353.03
2019-01-20T01:36:27.063Z,100356.16
2019-01-20T01:38:55.264Z,100357.05
2019-01-20T01:41:22.747Z,100355.71
2019-01-20T01:43:50.246Z,100354.48
2019-01-20T01:46:17.631Z,100353.33
2019-01-20T01:48:45.791Z,100357.22
2019-01-20T01:51:13.749Z,100352.07
2019-01-20T01:53:41.119Z,100365.56
2019-01-20T01:56:08.587Z,100369.94
2019-01-20T01:58:35.716Z,100358.09
2019-01-20T02:01:04.012Z,100355.57
2019-01-20T02:03:31.636Z,100345.86
2019-01-20T02:05:59.314Z,100357.88
2019-01-20T02:08:27.374Z,100355.81
2019-01-20T02:10:55.035Z,100352.11
2019-01-20T02:13:23.464Z,100355.27
2019-01-20T02:15:51.612Z,100357.14
2019-01-20T02:18:19.244Z,100353.01
2019-01-20T02:20:46.719Z,100355.27
2019-01-20T02:23:14.209Z,100362.27
2019-01-20T02:25:45.577Z,100358.27
2019-01-20T02:28:12.962Z,100358.55
2019-01-20T02:30:40.874Z,100357.06
2019-01-20T02:33:08.876Z,100360.80
2019-01-20T02:35:37.203Z,100355.77
2019-01-20T02:38:05.010Z,100355.63
2019-01-20T02:40:32.485Z,100352.89
2019-01-20T02:42:59.730Z,100355.86
2019-01-20T02:45:26.976Z,100355.77
2019-01-20T02:47:54.364Z,100356.11
2019-01-20T02:50:22.498Z,100357.55
2019-01-20T02:52:50.548Z,100357.72
2019-01-20T02:55:18.545Z,100362.36
2019-01-20T02:57:46.615Z,100351.88
2019-01-20T03:00:18.414Z,100357.41
2019-01-20T03:02:46.010Z,100351.46
2019-01-20T03:05:15.901Z,100353.06
2019-01-20T03:07:43.270Z,100353.55
2019-01-20T03:10:10.934Z,100353.28
2019-01-20T03:12:38.967Z,100352.66
2019-01-20T03:15:08.127Z,100351.81
2019-01-20T03:17:36.089Z,100352.69
2019-01-20T03:20:07.277Z,100349.50
2019-01-20T03:22:35.220Z,100346.03
2019-01-20T03:25:03.970Z,100348.24
2019-01-20T03:27:31.448Z,100341.31
2019-01-20T03:29:59.495Z,100341.04
2019-01-20T03:32:26.764Z,100335.79
2019-01-20T03:34:54.333Z,100332.88
2019-01-20T03:37:21.997Z,100331.91
2019-01-20T03:39:49.316Z,100331.55
2019-01-20T03:42:16.506Z,100336.10
2019-01-20T03:44:43.782Z,100330.86
2019-01-20T03:47:11.403Z,100330.58
2019-01-20T03:49:38.560Z,100334.28
2019-01-20T03:52:06.432Z,100330.33
2019-01-20T03:54:34.652Z,100333.52
2019-01-20T03:57:02.416Z,100331.48
2019-01-20T03:59:30.188Z,100332.22
2019-01-20T04:01:57.462Z,100334.07
2019-01-20T04:04:24.794Z,100332.95
2019-01-20T04:06:52.205Z,100330.19
2019-01-20T04:09:19.869Z,100334.70
2019-01-20T04:11:50.513Z,100330.09
2019-01-20T04:14:18.248Z,100333.77
2019-01-20T04:16:45.779Z,100337.64
2019-01-20T04:19:13.241Z,100336.34
2019-01-20T04:21:40.825Z,100335.41
2019-01-20T04:24:08.570Z,100340.12
2019-01-20T04:26:36.954Z,100341.45
2019-01-20T04:29:04.575Z,100338.61
2019-01-20T04:31:32.835Z,100341.67
2019-01-20T04:34:00.163Z,100342.19
2019-01-20T04:36:28.173Z,100339.05
2019-01-20T04:38:55.937Z,100333.69
2019-01-20T04:41:23.309Z,100337.05
2019-01-20T04:43:50.768Z,100332.39
2019-01-20T04:46:18.271Z,100334.21
2019-01-20T04:48:45.772Z,100342.54
2019-01-20T04:51:13.254Z,100336.69
2019-01-20T04:53:41.162Z,100342.81
2019-01-20T04:56:09.213Z,100345.75
2019-01-20T04:58:36.732Z,100338.37
2019-01-20T05:01:04.493Z,100343.72
2019-01-20T05:03:31.852Z,100340.08
2019-01-20T05:05:59.242Z,100342.50
2019-01-20T05:08:27.321Z,100341.47
2019-01-20T05:10:55.306Z,100344.22
2019-01-20T05:13:23.035Z,100344.54
2019-01-20T05:15:54.443Z,100342.97
2019-01-20T05:18:22.258Z,100344.78
2019-01-20T05:20:49.918Z,100348.91
2019-01-20T05:23:17.695Z,100345.30
2019-01-20T05:25:45.074Z,100345.05
2019-01-20T05:28:12.619Z,100341.04
2019-01-20T05:30:40.961Z,100346.27
2019-01-20T05:33:08.325Z,100341.88
2019-01-20T05:35:35.627Z,100349.09
2019-01-20T05:38:03.734Z,100342.72
2019-01-20T05:40:31.063Z,100346.77
2019-01-20T05:42:59.030Z,100347.55
2019-01-20T05:45:26.464Z,100345.23
2019-01-20T05:47:53.954Z,100351.66
2019-01-20T05:50:21.653Z,100347.89
2019-01-20T05:52:49.397Z,100346.55
2019-01-20T05:55:16.840Z,100343.91
2019-01-20T05:57:45.011Z,100348.63
2019-01-20T06:00:38.405Z,100349.73
2019-01-20T06:03:06.628Z,100356.02
2019-01-20T06:05:34.711Z,100355.27
2019-01-20T06:08:02.629Z,100359.19
2019-01-20T06:10:30.389Z,100361.47
2019-01-20T06:12:58.527Z,100362.53
2019-01-20T06:15:26.337Z,100369.52
2019-01-20T06:17:53.783Z,100365.47
2019-01-20T06:20:22.567Z,100368.50
2019-01-20T06:22:50.423Z,100369.27
2019-01-20T06:25:18.357Z,100371.06
2019-01-20T06:27:46.528Z,100377.77
2019-01-20T06:30:18.109Z,100378.63
2019-01-20T06:32:45.659Z,100377.70
2019-01-20T06:35:13.925Z,100379.86
2019-01-20T06:37:41.918Z,100375.69
2019-01-20T06:40:09.543Z,100381.80
2019-01-20T06:42:36.973Z,100376.75
2019-01-20T06:45:05.657Z,100380.38
2019-01-20T06:47:33.193Z,100385.57
2019-01-20T06:50:00.468Z,100392.56
2019-01-20T06:52:27.808Z,100392.69
2019-01-20T06:54:55.473Z,100388.09
2019-01-20T06:57:23.382Z,100395.70
2019-01-20T06:59:51.440Z,100393.79
2019-01-20T07:02:19.001Z,100399.44
2019-01-20T07:04:46.680Z,100399.44
2019-01-20T07:07:14.466Z,100410.06
2019-01-20T07:09:42.479Z,100405.61
2019-01-20T07:12:10.304Z,100412.96
2019-01-20T07:14:37.498Z,100415.52
2019-01-20T07:17:05.353Z,100419.73
2019-01-20T07:19:33.063Z,100422.39
2019-01-20T07:22:00.350Z,100421.14
2019-01-20T07:24:27.694Z,100425.53
2019-01-20T07:26:59.870Z,100433.36
2019-01-20T07:29:30.780Z,100430.08
2019-01-20T07:31:58.574Z,100431.45
2019-01-20T07:34:27.524Z,100438.80
2019-01-20T07:36:55.121Z,100435.66
2019-01-20T07:39:23.480Z,100439.23
2019-01-20T07:41:50.779Z,100438.80
2019-01-20T07:44:20.499Z,100440.68
2019-01-20T07:46:49.933Z,100449.28
2019-01-20T07:49:17.221Z,100452.52
2019-01-20T07:51:45.493Z,100460.34
2019-01-20T07:54:13.067Z,100463.73
2019-01-20T07:56:40.706Z,100456.12
2019-01-20T07:59:08.311Z,100462.36
2019-01-20T08:01:36.029Z,100466.10
2019-01-20T08:04:03.756Z,100469.34
2019-01-20T08:06:31.609Z,100472.48
2019-01-20T08:08:58.994Z,100468.34
2019-01-20T08:11:27.039Z,100470.97
2019-01-20T08:13:54.822Z,100474.78
2019-01-20T08:16:22.206Z,100474.34
2019-01-20T08:18:50.310Z,100480.58
2019-01-20T08:21:17.956Z,100487.81
2019-01-20T08:23:45.955Z,100489.78
2019-01-20T08:26:14.065Z,100487.69
2019-01-20T08:28:42.779Z,100485.93
2019-01-20T08:31:10.979Z,100485.13
2019-01-20T08:33:39.451Z,100495.51
2019-01-20T08:36:06.999Z,100494.09
2019-01-20T08:38:34.633Z,100505.89
2019-01-20T08:41:02.157Z,100511.44
2019-01-20T08:43:31.967Z,100508.61
2019-01-20T08:46:36.538Z,100516.70
2019-01-20T08:49:04.495Z,100520.06
2019-01-20T08:51:33.493Z,100519.31
2019-01-20T08:54:00.753Z,100518.69
2019-01-20T08:56:28.371Z,100526.00
2019-01-20T08:58:56.423Z,100525.20
2019-01-20T09:01:24.205Z,100526.16
2019-01-20T09:03:53.859Z,100525.05
2019-01-20T09:06:21.598Z,100528.59
2019-01-20T09:08:49.901Z,100529.47
2019-01-20T09:11:17.478Z,100530.09
2019-01-20T09:13:45.809Z,100531.89
2019-01-20T09:16:13.343Z,100528.22
2019-01-20T09:18:41.353Z,100529.97
2019-01-20T09:21:08.968Z,100535.36
2019-01-20T09:23:37.043Z,100538.50
2019-01-20T09:26:04.823Z,100535.86
2019-01-20T09:28:32.333Z,100545.50
2019-01-20T09:30:59.702Z,100544.59
2019-01-20T09:33:27.185Z,100547.34
2019-01-20T09:35:55.937Z,100540.16
2019-01-20T09:38:24.026Z,100548.06
2019-01-20T09:40:51.593Z,100546.09
2019-01-20T09:43:19.137Z,100543.95
2019-01-20T09:45:47.193Z,100544.31
2019-01-20T09:48:15.107Z,100550.21
2019-01-20T09:50:42.805Z,100553.75
2019-01-20T09:53:10.491Z,100558.97
2019-01-20T09:55:37.764Z,100556.95
2019-01-20T09:58:11.277Z,100558.50
2019-01-20T10:00:39.210Z,100563.67
2019-01-20T10:03:07.279Z,100558.92
2019-01-20T10:05:35.253Z,100559.02
2019-01-20T10:08:04.403Z,100556.95
2019-01-20T10:10:36.064Z,100558.72
2019-01-20T10:13:10.387Z,100558.54
2019-01-20T10:15:37.954Z,100555.66
2019-01-20T10:18:08.072Z,100559.84
2019-01-20T10:20:35.854Z,100561.59
2019-01-20T10:23:05.000Z,100563.25
2019-01-20T10:25:32.538Z,100563.77
2019-01-20T10:27:59.791Z,100569.47
2019-01-20T10:30:32.707Z,100564.60
2019-01-20T10:33:00.811Z,100562.53
2019-01-20T10:35:52.469Z,100562.13
2019-01-20T10:38:22.240Z,100555.17
2019-01-20T10:40:50.005Z,100559.55
2019-01-20T10:43:17.717Z,100554.72
2019-01-20T10:45:45.426Z,100550.05
2019-01-20T10:48:13.206Z,100552.23
2019-01-20T10:50:41.253Z,100560.98
2019-01-20T10:53:09.319Z,100551.70
2019-01-20T10:55:36.882Z,100553.08
2019-01-20T10:58:07.911Z,100554.09
2019-01-20T11:00:38.229Z,100560.23
2019-01-20T11:03:06.615Z,100563.14
2019-01-20T11:05:34.582Z,100567.25
2019-01-20T11:08:02.511Z,100564.25
2019-01-20T11:10:30.340Z,100564.95
2019-01-20T11:12:58.915Z,100562.37
2019-01-20T11:15:26.423Z,100559.58
2019-01-20T11:17:54.884Z,100565.00
2019-01-20T11:20:23.130Z,100563.66
2019-01-20T11:22:51.261Z,100555.45
2019-01-20T11:25:23.181Z,100565.34
2019-01-20T11:27:50.691Z,100565.58
2019-01-20T11:30:18.959Z,100565.38
2019-01-20T11:32:47.065Z,100560.05
2019-01-20T11:35:18.617Z,100563.97
2019-01-20T11:37:47.229Z,100557.47
2019-01-20T11:40:14.744Z,100567.13
2019-01-20T11:42:42.846Z,100555.58
2019-01-20T11:45:18.850Z,100566.29
2019-01-20T11:47:47.033Z,100568.98
2019-01-20T11:50:15.484Z,100563.06
2019-01-20T11:52:44.133Z,100562.52
2019-01-20T11:55:15.250Z,100560.56
2019-01-20T11:57:43.581Z,100556.13
2019-01-20T12:00:30.583Z,100555.77
2019-01-20T12:03:03.185Z,100555.57
2019-01-20T12:05:35.219Z,100558.70
2019-01-20T12:08:05.185Z,100555.63
2019-01-20T12:10:33.217Z,100555.97
2019-01-20T12:13:04.210Z,100553.91
2019-01-20T12:15:31.888Z,100555.70
2019-01-20T12:17:59.554Z,100552.16
2019-01-20T12:20:27.020Z,100557.68
2019-01-20T12:22:57.439Z,100553.80
2019-01-20T12:25:24.953Z,100552.13
2019-01-20T12:27:52.544Z,100557.80
2019-01-20T12:30:23.018Z,100557.16
2019-01-20T12:32:51.099Z,100554.92
2019-01-20T12:35:18.575Z,100553.94
2019-01-20T12:37:46.982Z,100554.83
2019-01-20T12:40:25.668Z,100562.16
2019-01-20T12:42:53.458Z,100558.06
2019-01-20T12:45:22.425Z,100556.96
2019-01-20T12:47:50.674Z,100555.19
2019-01-20T12:50:18.930Z,100554.45
2019-01-20T12:52:46.802Z,100555.89
2019-01-20T12:55:19.688Z,100562.48
2019-01-20T12:57:47.796Z,100561.09
2019-01-20T13:00:19.365Z,100566.23
2019-01-20T13:02:46.995Z,100554.95
2019-01-20T13:05:18.076Z,100556.48
2019-01-20T13:07:46.626Z,100558.52
2019-01-20T13:10:15.828Z,100560.01
2019-01-20T13:12:43.895Z,100558.67
2019-01-20T13:15:15.605Z,100557.50
2019-01-20T13:17:43.133Z,100557.14
2019-01-20T13:20:14.854Z,100552.95
2019-01-20T13:22:42.357Z,100552.48
2019-01-20T13:25:14.226Z,100553.80
2019-01-20T13:27:42.557Z,100550.95
2019-01-20T13:30:15.159Z,100548.63
2019-01-20T13:32:42.938Z,100541.02
2019-01-20T13:35:10.895Z,100547.61
2019-01-20T13:37:42.316Z,100552.66
2019-01-20T13:40:14.929Z,100542.55
2019-01-20T13:42:42.634Z,100548.30
2019-01-20T13:45:11.227Z,100543.75
2019-01-20T13:47:48.693Z,100546.41
2019-01-20T13:50:15.439Z,100545.39
2019-01-20T13:52:43.294Z,100548.23
2019-01-20T13:55:13.821Z,100545.42
2019-01-20T13:57:41.596Z,100541.53
2019-01-20T14:00:16.975Z,100546.23
2019-01-20T14:02:46.972Z,100547.42
2019-01-20T14:05:14.778Z,100545.92
2019-01-20T14:07:44.312Z,100547.90
2019-01-20T14:10:14.806Z,100551.45
2019-01-20T14:12:42.074Z,100548.77
2019-01-20T14:15:12.586Z,100544.22
2019-01-20T14:17:40.842Z,100548.98
2019-01-20T14:20:18.304Z,100551.45
2019-01-20T14:22:47.810Z,100556.84
2019-01-20T14:25:19.663Z,100559.75
2019-01-20T14:27:47.410Z,100564.11
2019-01-20T14:30:29.325Z,100562.70
2019-01-20T14:32:56.789Z,100565.28
2019-01-20T14:35:24.179Z,100572.34
2019-01-20T14:37:52.265Z,100567.64
2019-01-20T14:40:20.017Z,100572.52
2019-01-20T14:42:47.621Z,100565.81
2019-01-20T14:45:15.602Z,100564.98
2019-01-20T14:47:43.121Z,100570.51
2019-01-20T14:50:17.895Z,100574.22
2019-01-20T14:52:45.582Z,100572.18
2019-01-20T14:55:13.339Z,100576.22
2019-01-20T14:57:40.883Z,100571.88
2019-01-20T15:00:17.402Z,100570.68
2019-01-20T15:02:44.841Z,100569.88
2019-01-20T15:05:13.516Z,100578.45
2019-01-20T15:07:41.299Z,100574.25
2019-01-20T15:10:10.068Z,100578.98
2019-01-20T15:12:37.716Z,100578.63
2019-01-20T15:15:08.931Z,100584.17
2019-01-20T15:17:36.301Z,100584.20
2019-01-20T15:20:05.966Z,100589.40
2019-01-20T15:22:33.865Z,100586.70
2019-01-20T15:25:01.147Z,100587.72
2019-01-20T15:27:28.490Z,100588.41
2019-01-20T15:29:56.042Z,100590.91
2019-01-20T15:32:24.434Z,100591.40
2019-01-20T15:34:52.311Z,100596.28
2019-01-20T15:37:20.071Z,100595.08
2019-01-20T15:39:47.674Z,100591.88
2019-01-20T15:42:15.914Z,100596.06
2019-01-20T15:44:44.170Z,100595.39
2019-01-20T15:47:12.008Z,100593.36
2019-01-20T15:49:39.771Z,100595.85
2019-01-20T15:52:07.266Z,100602.86
2019-01-20T15:54:37.166Z,100601.16
2019-01-20T15:57:04.691Z,100602.69
2019-01-20T15:59:32.210Z,100613.37
2019-01-20T16:01:59.728Z,100609.69
2019-01-20T16:04:27.931Z,100619.05
2019-01-20T16:06:55.568Z,100624.86
2019-01-20T16:09:23.168Z,100622.98
2019-01-20T16:11:51.168Z,100621.44
2019-01-20T16:14:18.274Z,100631.13
2019-01-20T16:16:45.884Z,100636.60
2019-01-20T16:19:13.641Z,100635.17
2019-01-20T16:21:42.681Z,100638.94
2019-01-20T16:24:10.523Z,100642.61
2019-01-20T16:26:39.018Z,100647.13
2019-01-20T16:29:07.187Z,100651.68
2019-01-20T16:31:39.774Z,100646.03
2019-01-20T16:34:07.018Z,100652.45
2019-01-20T16:36:34.659Z,100658.80
2019-01-20T16:39:03.951Z,100657.75
2019-01-20T16:41:31.188Z,100660.18
2019-01-20T16:43:58.590Z,100669.58
2019-01-20T16:46:26.292Z,100667.80
2019-01-20T16:48:53.925Z,100673.52
2019-01-20T16:51:36.443Z,100676.36
2019-01-20T16:54:04.664Z,100673.12
2019-01-20T16:56:32.497Z,100679.88
2019-01-20T16:58:59.959Z,100683.12
2019-01-20T17:01:27.424Z,100689.32
2019-01-20T17:03:55.161Z,100689.98
2019-01-20T17:06:23.037Z,100692.91
2019-01-20T17:08:50.994Z,100697.42
2019-01-20T17:11:18.254Z,100701.25
2019-01-20T17:13:45.786Z,100695.44
2019-01-20T17:16:13.177Z,100705.64
2019-01-20T17:18:40.874Z,100703.78
2019-01-20T17:21:09.543Z,100708.66
2019-01-20T17:23:37.439Z,100715.01
2019-01-20T17:26:05.045Z,100714.97
2019-01-20T17:28:32.189Z,100719.27
2019-01-20T17:30:59.806Z,100723.59
2019-01-20T17:33:27.493Z,100726.28
2019-01-20T17:35:55.423Z,100726.25
2019-01-20T17:38:23.088Z,100728.08
2019-01-20T17:40:50.725Z,100731.44
2019-01-20T17:43:18.523Z,100729.64
2019-01-20T17:45:48.596Z,100734.84
2019-01-20T17:48:15.589Z,100736.68
2019-01-20T17:50:44.242Z,100740.73
2019-01-20T17:53:12.400Z,100746.13
2019-01-20T17:55:40.412Z,100747.83
2019-01-20T17:58:07.939Z,100742.98
2019-01-20T18:00:39.136Z,100752.08
2019-01-20T18:03:06.977Z,100748.18
2019-01-20T18:05:35.169Z,100754.22
2019-01-20T18:08:03.513Z,100759.45
2019-01-20T18:10:30.979Z,100768.17
2019-01-20T18:12:58.728Z,100763.27
2019-01-20T18:15:26.401Z,100771.09
2019-01-20T18:17:53.905Z,100771.42
2019-01-20T18:20:24.338Z,100777.47
2019-01-20T18:22:52.147Z,100782.63
2019-01-20T18:25:20.464Z,100781.72
2019-01-20T18:27:47.950Z,100780.38
2019-01-20T18:30:20.453Z,100784.03
2019-01-20T18:32:48.312Z,100792.33
2019-01-20T18:35:15.796Z,100795.43
2019-01-20T18:37:43.448Z,100795.27
2019-01-20T18:40:14.612Z,100797.26
2019-01-20T18:42:42.255Z,100801.89
2019-01-20T18:45:12.888Z,100802.44
2019-01-20T18:47:40.993Z,100811.66
2019-01-20T18:50:11.415Z,100805.81
2019-01-20T18:52:43.387Z,100817.25
2019-01-20T18:55:12.201Z,100815.17
2019-01-20T18:57:39.827Z,100819.83
2019-01-20T19:00:18.758Z,100812.94
2019-01-20T19:02:46.225Z,100819.61
2019-01-20T19:05:14.648Z,100819.38
2019-01-20T19:07:42.732Z,100822.83
2019-01-20T19:10:12.497Z,100824.17
2019-01-20T19:12:39.889Z,100820.55
2019-01-20T19:15:09.697Z,100830.39
2019-01-20T19:17:37.313Z,100832.45
2019-01-20T19:20:07.708Z,100836.98
2019-01-20T19:22:35.102Z,100841.95
2019-01-20T19:25:05.319Z,100840.31
2019-01-20T19:27:32.856Z,100847.13
2019-01-20T19:30:00.877Z,100850.25
2019-01-20T19:32:28.846Z,100853.63
2019-01-20T19:34:56.407Z,100863.64
2019-01-20T19:37:23.796Z,100859.70
2019-01-20T19:39:51.845Z,100862.70
2019-01-20T19:42:19.986Z,100859.89
2019-01-20T19:44:47.693Z,100870.25
2019-01-20T19:47:15.312Z,100874.04
2019-01-20T19:49:43.789Z,100869.93
2019-01-20T19:52:11.205Z,100875.38
2019-01-20T19:54:38.840Z,100879.05
2019-01-20T19:57:06.674Z,100878.42
2019-01-20T19:59:34.029Z,100876.39
2019-01-20T20:02:02.074Z,100881.75
2019-01-20T20:04:29.867Z,100882.20
2019-01-20T20:06:58.027Z,100886.06
2019-01-20T20:09:26.320Z,100886.46
2019-01-20T20:11:53.582Z,100881.78
2019-01-20T20:14:21.141Z,100882.62
2019-01-20T20:16:48.812Z,100889.66
2019-01-20T20:19:16.058Z,100893.81
2019-01-20T20:21:44.186Z,100899.80
2019-01-20T20:24:11.735Z,100897.98
2019-01-20T20:26:39.351Z,100899.09
2019-01-20T20:29:06.906Z,100898.58
2019-01-20T20:31:34.719Z,100901.63
2019-01-20T20:34:02.094Z,100906.39
2019-01-20T20:36:29.482Z,100908.78
2019-01-20T20:38:57.413Z,100906.98
2019-01-20T20:41:26.038Z,100906.55
2019-01-20T20:43:53.788Z,100907.72
2019-01-20T20:46:21.380Z,100912.61
2019-01-20T20:48:48.640Z,100910.09
2019-01-20T20:51:16.393Z,100916.27
2019-01-20T20:53:44.078Z,100920.69
2019-01-20T20:56:11.996Z,100922.52
2019-01-20T20:58:39.825Z,100923.59
2019-01-20T21:01:07.190Z,100920.58
2019-01-20T21:03:37.460Z,100925.63
2019-01-20T21:06:04.998Z,100930.86
2019-01-20T21:08:32.897Z,100930.19
2019-01-20T21:11:00.270Z,100937.32
2019-01-20T21:13:27.891Z,100935.99
2019-01-20T21:15:55.277Z,100947.16
2019-01-20T21:18:22.649Z,100948.98
2019-01-20T21:20:50.010Z,100948.63
2019-01-20T21:23:19.012Z,100948.14
2019-01-20T21:25:46.733Z,100945.83
2019-01-20T21:28:14.599Z,100953.73
2019-01-20T21:30:44.562Z,100963.55
2019-01-20T21:33:12.360Z,100956.98
2019-01-20T21:35:39.822Z,100956.75
2019-01-20T21:38:07.393Z,100961.01
2019-01-20T21:40:35.050Z,100966.92
2019-01-20T21:43:03.503Z,100967.89
2019-01-20T21:45:31.147Z,100967.05
2019-01-20T21:47:58.659Z,100973.09
2019-01-20T21:50:29.090Z,100977.59
2019-01-20T21:52:57.126Z,100978.11
2019-01-20T21:55:24.584Z,100990.65
2019-01-20T21:57:52.621Z,100987.99
2019-01-20T22:00:22.839Z,100991.14
2019-01-20T22:02:50.891Z,100991.87
2019-01-20T22:05:18.612Z,100995.61
2019-01-20T22:07:46.850Z,101001.06
2019-01-20T22:10:17.477Z,101004.70
2019-01-20T22:12:44.988Z,101004.32
2019-01-20T22:15:13.000Z,101003.60
2019-01-20T22:17:40.618Z,101004.22
2019-01-20T22:20:12.567Z,100996.59
2019-01-20T22:22:40.480Z,101000.70
2019-01-20T22:25:08.611Z,101004.59
2019-01-20T22:27:36.031Z,101011.03
2019-01-20T22:30:08.821Z,101008.95
2019-01-20T22:32:35.964Z,101011.02
2019-01-20T22:35:05.428Z,101019.63
2019-01-20T22:37:33.403Z,101020.44
2019-01-20T22:40:01.111Z,101029.27
2019-01-20T22:42:28.958Z,101024.55
2019-01-20T22:44:56.325Z,101036.02
2019-01-20T22:47:24.093Z,101041.44
2019-01-20T22:49:51.960Z,101043.11
2019-01-20T22:52:19.743Z,101040.45
2019-01-20T22:54:48.927Z,101044.05
2019-01-20T22:57:17.564Z,101051.10
2019-01-20T22:59:45.524Z,101051.10
2019-01-20T23:02:13.088Z,101050.25
2019-01-20T23:04:43.689Z,101051.59
2019-01-20T23:07:12.308Z,101051.92
2019-01-20T23:09:40.649Z,101050.56
2019-01-20T23:12:08.462Z,101051.41
2019-01-20T23:14:39.653Z,101053.23
2019-01-20T23:17:07.919Z,101055.28
2019-01-20T23:19:35.949Z,101054.80
2019-01-20T23:22:04.248Z,101056.52
2019-01-20T23:24:31.852Z,101057.45
2019-01-20T23:26:59.431Z,101061.54
2019-01-20T23:29:34.003Z,101060.21
2019-01-20T23:32:11.873Z,101071.45
2019-01-20T23:34:41.345Z,101066.38
2019-01-20T23:37:10.253Z,101075.50
2019-01-20T23:39:38.134Z,101077.10
2019-01-20T23:42:05.758Z,101075.89
2019-01-20T23:44:33.410Z,101077.55
2019-01-20T23:47:00.665Z,101071.78
2019-01-20T23:49:28.222Z,101071.03
2019-01-20T23:51:55.961Z,101077.55
2019-01-20T23:54:23.498Z,101080.94
2019-01-20T23:56:51.232Z,101080.61
2019-01-20T23:59:18.962Z,101076.86
